sensor_id;sensor_type;location;lat;lon;timestamp;temperature;humidity
26182;DHT22;13927;51.534;11.866;2023-12-29T00:01:55;9.10;99.90
26182;DHT22;13927;51.534;11.866;2023-12-29T00:04:20;9.10;99.90
26182;DHT22;13927;51.534;11.866;2023-12-29T00:06:46;9.10;99.90
26182;DHT22;13927;51.534;11.866;2023-12-29T00:09:12;9.10;99.90
26182;DHT22;13927;51.534;11.866;2023-12-29T00:11:40;9.10;99.90
26182;DHT22;13927;51.534;11.866;2023-12-29T00:14:05;9.10;99.90
26182;DHT22;13927;51.534;11.866;2023-12-29T00:16:31;9.10;99.90
26182;DHT22;13927;51.534;11.866;2023-12-29T00:18:57;9.00;99.90
26182;DHT22;13927;51.534;11.866;2023-12-29T00:21:22;9.10;99.90
26182;DHT22;13927;51.534;11.866;2023-12-29T00:23:48;9.10;99.90
26182;DHT22;13927;51.534;11.866;2023-12-29T00:26:17;9.10;99.90
26182;DHT22;13927;51.534;11.866;2023-12-29T00:28:44;9.10;99.90
26182;DHT22;13927;51.534;11.866;2023-12-29T00:31:14;9.10;99.90
26182;DHT22;13927;51.534;11.866;2023-12-29T00:33:41;9.10;99.90
26182;DHT22;13927;51.534;11.866;2023-12-29T00:36:16;9.10;99.90
26182;DHT22;13927;51.534;11.866;2023-12-29T00:38:43;9.10;99.90
26182;DHT22;13927;51.534;11.866;2023-12-29T00:41:08;9.10;99.90
26182;DHT22;13927;51.534;11.866;2023-12-29T00:43:35;9.10;99.90
26182;DHT22;13927;51.534;11.866;2023-12-29T00:46:02;9.10;99.90
26182;DHT22;13927;51.534;11.866;2023-12-29T00:48:29;9.10;99.90
26182;DHT22;13927;51.534;11.866;2023-12-29T00:50:55;9.10;99.90
26182;DHT22;13927;51.534;11.866;2023-12-29T00:53:20;9.10;99.90
26182;DHT22;13927;51.534;11.866;2023-12-29T00:55:46;9.10;99.90
26182;DHT22;13927;51.534;11.866;2023-12-29T00:58:12;9.10;99.90
26182;DHT22;13927;51.534;11.866;2023-12-29T01:00:37;9.10;99.90
26182;DHT22;13927;51.534;11.866;2023-12-29T01:03:03;9.10;99.90
26182;DHT22;13927;51.534;11.866;2023-12-29T01:05:30;9.10;99.90
26182;DHT22;13927;51.534;11.866;2023-12-29T01:07:55;9.10;99.90
26182;DHT22;13927;51.534;11.866;2023-12-29T01:10:21;9.20;99.90
26182;DHT22;13927;51.534;11.866;2023-12-29T01:12:47;9.20;99.90
26182;DHT22;13927;51.534;11.866;2023-12-29T01:15:13;9.20;99.90
26182;DHT22;13927;51.534;11.866;2023-12-29T01:17:38;9.20;99.90
26182;DHT22;13927;51.534;11.866;2023-12-29T01:20:04;9.20;99.90
26182;DHT22;13927;51.534;11.866;2023-12-29T01:22:30;9.20;99.90
26182;DHT22;13927;51.534;11.866;2023-12-29T01:24:59;9.20;99.90
26182;DHT22;13927;51.534;11.866;2023-12-29T01:27:25;9.20;99.90
26182;DHT22;13927;51.534;11.866;2023-12-29T01:29:51;9.20;99.90
26182;DHT22;13927;51.534;11.866;2023-12-29T01:32:18;9.20;99.90
26182;DHT22;13927;51.534;11.866;2023-12-29T01:34:47;9.20;99.90
26182;DHT22;13927;51.534;11.866;2023-12-29T01:37:12;9.20;99.90
26182;DHT22;13927;51.534;11.866;2023-12-29T01:39:38;9.20;99.90
26182;DHT22;13927;51.534;11.866;2023-12-29T01:42:05;9.20;99.90
26182;DHT22;13927;51.534;11.866;2023-12-29T01:44:31;9.20;99.90
26182;DHT22;13927;51.534;11.866;2023-12-29T01:46:59;9.20;99.90
26182;DHT22;13927;51.534;11.866;2023-12-29T01:49:27;9.20;99.90
26182;DHT22;13927;51.534;11.866;2023-12-29T01:51:58;9.10;99.90
26182;DHT22;13927;51.534;11.866;2023-12-29T01:54:35;9.20;99.90
26182;DHT22;13927;51.534;11.866;2023-12-29T01:57:03;9.20;99.90
26182;DHT22;13927;51.534;11.866;2023-12-29T01:59:30;9.20;99.90
26182;DHT22;13927;51.534;11.866;2023-12-29T02:01:57;9.20;99.90
26182;DHT22;13927;51.534;11.866;2023-12-29T02:04:26;9.20;99.90
26182;DHT22;13927;51.534;11.866;2023-12-29T02:06:52;9.20;99.90
26182;DHT22;13927;51.534;11.866;2023-12-29T02:09:18;9.20;99.90
26182;DHT22;13927;51.534;11.866;2023-12-29T02:11:45;9.20;99.90
26182;DHT22;13927;51.534;11.866;2023-12-29T02:14:11;9.20;99.90
26182;DHT22;13927;51.534;11.866;2023-12-29T02:16:46;9.30;99.90
26182;DHT22;13927;51.534;11.866;2023-12-29T02:19:38;9.30;99.90
26182;DHT22;13927;51.534;11.866;2023-12-29T02:22:06;9.30;99.90
26182;DHT22;13927;51.534;11.866;2023-12-29T02:24:34;9.40;99.90
26182;DHT22;13927;51.534;11.866;2023-12-29T02:27:14;9.40;99.90
26182;DHT22;13927;51.534;11.866;2023-12-29T02:32:42;9.30;99.90
26182;DHT22;13927;51.534;11.866;2023-12-29T02:35:14;9.30;99.90
26182;DHT22;13927;51.534;11.866;2023-12-29T02:37:45;9.30;99.90
26182;DHT22;13927;51.534;11.866;2023-12-29T02:40:11;9.30;99.90
26182;DHT22;13927;51.534;11.866;2023-12-29T02:42:37;9.40;99.90
26182;DHT22;13927;51.534;11.866;2023-12-29T02:45:03;9.40;99.90
26182;DHT22;13927;51.534;11.866;2023-12-29T02:47:29;9.50;99.90
26182;DHT22;13927;51.534;11.866;2023-12-29T02:49:55;9.50;99.90
26182;DHT22;13927;51.534;11.866;2023-12-29T02:52:21;9.50;99.90
26182;DHT22;13927;51.534;11.866;2023-12-29T02:54:46;9.50;99.90
26182;DHT22;13927;51.534;11.866;2023-12-29T02:57:12;9.50;99.90
26182;DHT22;13927;51.534;11.866;2023-12-29T02:59:38;9.50;99.90
26182;DHT22;13927;51.534;11.866;2023-12-29T03:02:04;9.40;99.90
26182;DHT22;13927;51.534;11.866;2023-12-29T03:04:29;9.30;99.90
26182;DHT22;13927;51.534;11.866;2023-12-29T03:06:55;9.30;99.90
26182;DHT22;13927;51.534;11.866;2023-12-29T03:09:21;9.30;99.90
26182;DHT22;13927;51.534;11.866;2023-12-29T03:11:46;9.30;99.90
26182;DHT22;13927;51.534;11.866;2023-12-29T03:14:15;9.20;99.90
26182;DHT22;13927;51.534;11.866;2023-12-29T03:16:40;9.20;99.90
26182;DHT22;13927;51.534;11.866;2023-12-29T03:19:06;9.20;99.90
26182;DHT22;13927;51.534;11.866;2023-12-29T03:21:33;9.20;99.90
26182;DHT22;13927;51.534;11.866;2023-12-29T03:23:58;9.10;99.90
26182;DHT22;13927;51.534;11.866;2023-12-29T03:26:24;9.10;99.90
26182;DHT22;13927;51.534;11.866;2023-12-29T03:28:50;9.10;99.90
26182;DHT22;13927;51.534;11.866;2023-12-29T03:31:16;9.00;99.90
26182;DHT22;13927;51.534;11.866;2023-12-29T03:33:41;9.00;99.90
26182;DHT22;13927;51.534;11.866;2023-12-29T03:36:09;9.00;99.90
26182;DHT22;13927;51.534;11.866;2023-12-29T03:38:34;9.00;99.90
26182;DHT22;13927;51.534;11.866;2023-12-29T03:41:02;9.00;99.90
26182;DHT22;13927;51.534;11.866;2023-12-29T03:43:28;9.00;99.90
26182;DHT22;13927;51.534;11.866;2023-12-29T03:45:54;9.00;99.90
26182;DHT22;13927;51.534;11.866;2023-12-29T03:48:20;9.00;99.90
26182;DHT22;13927;51.534;11.866;2023-12-29T03:50:45;9.00;99.90
26182;DHT22;13927;51.534;11.866;2023-12-29T03:53:11;9.00;99.90
26182;DHT22;13927;51.534;11.866;2023-12-29T03:55:37;9.10;99.90
26182;DHT22;13927;51.534;11.866;2023-12-29T03:58:03;9.10;99.90
26182;DHT22;13927;51.534;11.866;2023-12-29T04:00:28;9.10;99.90
26182;DHT22;13927;51.534;11.866;2023-12-29T04:02:54;9.10;99.90
26182;DHT22;13927;51.534;11.866;2023-12-29T04:05:20;9.20;99.90
26182;DHT22;13927;51.534;11.866;2023-12-29T04:07:46;9.10;99.90
26182;DHT22;13927;51.534;11.866;2023-12-29T04:10:11;9.10;99.90
26182;DHT22;13927;51.534;11.866;2023-12-29T04:12:37;9.10;99.90
26182;DHT22;13927;51.534;11.866;2023-12-29T04:15:04;9.10;99.90
26182;DHT22;13927;51.534;11.866;2023-12-29T04:17:30;9.10;99.90
26182;DHT22;13927;51.534;11.866;2023-12-29T04:19:55;9.00;99.90
26182;DHT22;13927;51.534;11.866;2023-12-29T04:22:22;9.00;99.90
26182;DHT22;13927;51.534;11.866;2023-12-29T04:24:48;9.00;99.90
26182;DHT22;13927;51.534;11.866;2023-12-29T04:27:17;9.00;99.90
26182;DHT22;13927;51.534;11.866;2023-12-29T04:29:45;9.00;99.90
26182;DHT22;13927;51.534;11.866;2023-12-29T04:32:11;9.00;99.90
26182;DHT22;13927;51.534;11.866;2023-12-29T04:34:37;9.00;99.90
26182;DHT22;13927;51.534;11.866;2023-12-29T04:37:03;9.00;99.90
26182;DHT22;13927;51.534;11.866;2023-12-29T04:39:28;9.10;99.90
26182;DHT22;13927;51.534;11.866;2023-12-29T04:41:54;9.10;99.90
26182;DHT22;13927;51.534;11.866;2023-12-29T04:44:20;9.00;99.90
26182;DHT22;13927;51.534;11.866;2023-12-29T04:46:45;9.00;99.90
26182;DHT22;13927;51.534;11.866;2023-12-29T04:49:11;9.00;99.90
26182;DHT22;13927;51.534;11.866;2023-12-29T04:51:37;9.00;99.90
26182;DHT22;13927;51.534;11.866;2023-12-29T04:54:03;9.00;99.90
26182;DHT22;13927;51.534;11.866;2023-12-29T04:56:29;9.00;99.90
26182;DHT22;13927;51.534;11.866;2023-12-29T04:58:54;9.00;99.90
26182;DHT22;13927;51.534;11.866;2023-12-29T05:01:22;9.00;99.90
26182;DHT22;13927;51.534;11.866;2023-12-29T05:03:47;9.00;99.90
26182;DHT22;13927;51.534;11.866;2023-12-29T05:06:13;9.10;99.90
26182;DHT22;13927;51.534;11.866;2023-12-29T05:08:39;9.10;99.90
26182;DHT22;13927;51.534;11.866;2023-12-29T05:11:04;9.20;99.90
26182;DHT22;13927;51.534;11.866;2023-12-29T05:13:30;9.10;99.90
26182;DHT22;13927;51.534;11.866;2023-12-29T05:15:56;9.10;99.90
26182;DHT22;13927;51.534;11.866;2023-12-29T05:18:21;9.10;99.90
26182;DHT22;13927;51.534;11.866;2023-12-29T05:20:47;9.10;99.90
26182;DHT22;13927;51.534;11.866;2023-12-29T05:23:13;9.20;99.90
26182;DHT22;13927;51.534;11.866;2023-12-29T05:25:39;9.10;99.90
26182;DHT22;13927;51.534;11.866;2023-12-29T05:28:05;9.20;99.90
26182;DHT22;13927;51.534;11.866;2023-12-29T05:30:30;9.20;99.90
26182;DHT22;13927;51.534;11.866;2023-12-29T05:32:57;9.20;99.90
26182;DHT22;13927;51.534;11.866;2023-12-29T05:35:23;9.20;99.90
26182;DHT22;13927;51.534;11.866;2023-12-29T05:37:49;9.20;99.90
26182;DHT22;13927;51.534;11.866;2023-12-29T05:40:15;9.20;99.90
26182;DHT22;13927;51.534;11.866;2023-12-29T05:42:41;9.20;99.90
26182;DHT22;13927;51.534;11.866;2023-12-29T05:45:07;9.20;99.90
26182;DHT22;13927;51.534;11.866;2023-12-29T05:47:33;9.20;99.90
26182;DHT22;13927;51.534;11.866;2023-12-29T05:49:59;9.20;99.90
26182;DHT22;13927;51.534;11.866;2023-12-29T05:52:24;9.20;99.90
26182;DHT22;13927;51.534;11.866;2023-12-29T05:54:50;9.20;99.90
26182;DHT22;13927;51.534;11.866;2023-12-29T05:57:16;9.30;99.90
26182;DHT22;13927;51.534;11.866;2023-12-29T05:59:42;9.30;99.90
26182;DHT22;13927;51.534;11.866;2023-12-29T06:02:07;9.20;99.90
26182;DHT22;13927;51.534;11.866;2023-12-29T06:04:33;9.20;99.90
26182;DHT22;13927;51.534;11.866;2023-12-29T06:06:59;9.20;99.90
26182;DHT22;13927;51.534;11.866;2023-12-29T06:09:24;9.20;99.90
26182;DHT22;13927;51.534;11.866;2023-12-29T06:11:50;9.20;99.90
26182;DHT22;13927;51.534;11.866;2023-12-29T06:14:16;9.30;99.90
26182;DHT22;13927;51.534;11.866;2023-12-29T06:16:41;9.30;99.90
26182;DHT22;13927;51.534;11.866;2023-12-29T06:19:08;9.40;99.90
26182;DHT22;13927;51.534;11.866;2023-12-29T06:21:43;9.40;99.90
26182;DHT22;13927;51.534;11.866;2023-12-29T06:24:09;9.40;99.90
26182;DHT22;13927;51.534;11.866;2023-12-29T06:26:36;9.40;99.90
26182;DHT22;13927;51.534;11.866;2023-12-29T06:29:07;9.30;99.90
26182;DHT22;13927;51.534;11.866;2023-12-29T06:31:33;9.30;99.90
26182;DHT22;13927;51.534;11.866;2023-12-29T06:33:59;9.30;99.90
26182;DHT22;13927;51.534;11.866;2023-12-29T06:36:26;9.30;99.90
26182;DHT22;13927;51.534;11.866;2023-12-29T06:38:52;9.30;99.90
26182;DHT22;13927;51.534;11.866;2023-12-29T06:41:19;9.30;99.90
26182;DHT22;13927;51.534;11.866;2023-12-29T06:43:44;9.40;99.90
26182;DHT22;13927;51.534;11.866;2023-12-29T06:46:11;9.40;99.90
26182;DHT22;13927;51.534;11.866;2023-12-29T06:48:39;9.40;99.90
26182;DHT22;13927;51.534;11.866;2023-12-29T06:51:05;9.50;99.90
26182;DHT22;13927;51.534;11.866;2023-12-29T06:53:31;9.50;99.90
26182;DHT22;13927;51.534;11.866;2023-12-29T06:55:56;9.40;99.90
26182;DHT22;13927;51.534;11.866;2023-12-29T06:58:22;9.40;99.90
26182;DHT22;13927;51.534;11.866;2023-12-29T07:00:48;9.40;99.90
26182;DHT22;13927;51.534;11.866;2023-12-29T07:03:14;9.50;99.90
26182;DHT22;13927;51.534;11.866;2023-12-29T07:05:40;9.50;99.90
26182;DHT22;13927;51.534;11.866;2023-12-29T07:08:06;9.50;99.90
26182;DHT22;13927;51.534;11.866;2023-12-29T07:10:31;9.50;99.90
26182;DHT22;13927;51.534;11.866;2023-12-29T07:12:57;9.40;99.90
26182;DHT22;13927;51.534;11.866;2023-12-29T07:15:23;9.50;99.90
26182;DHT22;13927;51.534;11.866;2023-12-29T07:17:49;9.50;99.90
26182;DHT22;13927;51.534;11.866;2023-12-29T07:20:15;9.50;99.90
26182;DHT22;13927;51.534;11.866;2023-12-29T07:22:41;9.50;99.90
26182;DHT22;13927;51.534;11.866;2023-12-29T07:25:08;9.50;99.90
26182;DHT22;13927;51.534;11.866;2023-12-29T07:27:34;9.50;99.90
26182;DHT22;13927;51.534;11.866;2023-12-29T07:29:59;9.60;99.90
26182;DHT22;13927;51.534;11.866;2023-12-29T07:32:25;9.50;99.90
26182;DHT22;13927;51.534;11.866;2023-12-29T07:34:51;9.60;99.90
26182;DHT22;13927;51.534;11.866;2023-12-29T07:37:16;9.60;99.90
26182;DHT22;13927;51.534;11.866;2023-12-29T07:39:42;9.50;99.90
26182;DHT22;13927;51.534;11.866;2023-12-29T07:42:08;9.50;99.90
26182;DHT22;13927;51.534;11.866;2023-12-29T07:44:33;9.50;99.90
26182;DHT22;13927;51.534;11.866;2023-12-29T07:46:59;9.60;99.90
26182;DHT22;13927;51.534;11.866;2023-12-29T07:49:25;9.60;99.90
26182;DHT22;13927;51.534;11.866;2023-12-29T07:51:51;9.50;99.90
26182;DHT22;13927;51.534;11.866;2023-12-29T07:54:17;9.50;99.90
26182;DHT22;13927;51.534;11.866;2023-12-29T07:56:43;9.50;99.90
26182;DHT22;13927;51.534;11.866;2023-12-29T07:59:08;9.50;99.90
26182;DHT22;13927;51.534;11.866;2023-12-29T08:01:34;9.50;99.90
26182;DHT22;13927;51.534;11.866;2023-12-29T08:04:02;9.40;99.90
26182;DHT22;13927;51.534;11.866;2023-12-29T08:06:28;9.40;99.90
26182;DHT22;13927;51.534;11.866;2023-12-29T08:08:54;9.40;99.90
26182;DHT22;13927;51.534;11.866;2023-12-29T08:11:20;9.40;99.90
26182;DHT22;13927;51.534;11.866;2023-12-29T08:13:48;9.40;99.90
26182;DHT22;13927;51.534;11.866;2023-12-29T08:16:14;9.40;99.90
26182;DHT22;13927;51.534;11.866;2023-12-29T08:18:42;9.40;99.90
26182;DHT22;13927;51.534;11.866;2023-12-29T08:21:08;9.40;99.90
26182;DHT22;13927;51.534;11.866;2023-12-29T08:23:34;9.40;99.90
26182;DHT22;13927;51.534;11.866;2023-12-29T08:26:02;9.50;99.90
26182;DHT22;13927;51.534;11.866;2023-12-29T08:28:28;9.50;99.90
26182;DHT22;13927;51.534;11.866;2023-12-29T08:30:54;9.50;99.90
26182;DHT22;13927;51.534;11.866;2023-12-29T08:33:19;9.60;99.90
26182;DHT22;13927;51.534;11.866;2023-12-29T08:35:45;9.60;99.90
26182;DHT22;13927;51.534;11.866;2023-12-29T08:38:11;9.60;99.90
26182;DHT22;13927;51.534;11.866;2023-12-29T08:40:37;9.60;99.90
26182;DHT22;13927;51.534;11.866;2023-12-29T08:43:03;9.70;99.90
26182;DHT22;13927;51.534;11.866;2023-12-29T08:45:29;9.80;99.90
26182;DHT22;13927;51.534;11.866;2023-12-29T08:47:55;9.90;99.90
26182;DHT22;13927;51.534;11.866;2023-12-29T08:50:20;9.90;99.90
26182;DHT22;13927;51.534;11.866;2023-12-29T08:52:47;10.00;99.90
26182;DHT22;13927;51.534;11.866;2023-12-29T08:55:13;10.00;99.90
26182;DHT22;13927;51.534;11.866;2023-12-29T08:57:39;10.10;99.90
26182;DHT22;13927;51.534;11.866;2023-12-29T09:00:05;10.10;99.90
26182;DHT22;13927;51.534;11.866;2023-12-29T09:02:31;10.10;99.90
26182;DHT22;13927;51.534;11.866;2023-12-29T09:15:34;10.30;99.90
26182;DHT22;13927;51.534;11.866;2023-12-29T09:18:06;10.30;99.90
26182;DHT22;13927;51.534;11.866;2023-12-29T09:20:33;10.30;99.90
26182;DHT22;13927;51.534;11.866;2023-12-29T09:23:00;10.40;99.90
26182;DHT22;13927;51.534;11.866;2023-12-29T09:25:26;10.30;99.90
26182;DHT22;13927;51.534;11.866;2023-12-29T09:27:53;10.40;99.90
26182;DHT22;13927;51.534;11.866;2023-12-29T09:30:19;10.50;99.90
26182;DHT22;13927;51.534;11.866;2023-12-29T09:32:45;10.50;99.90
26182;DHT22;13927;51.534;11.866;2023-12-29T09:35:11;10.60;99.90
26182;DHT22;13927;51.534;11.866;2023-12-29T09:37:37;10.60;99.90
26182;DHT22;13927;51.534;11.866;2023-12-29T09:40:04;10.60;99.90
26182;DHT22;13927;51.534;11.866;2023-12-29T09:42:31;10.70;99.90
26182;DHT22;13927;51.534;11.866;2023-12-29T09:45:02;10.70;99.90
26182;DHT22;13927;51.534;11.866;2023-12-29T09:47:33;10.70;99.90
26182;DHT22;13927;51.534;11.866;2023-12-29T09:50:15;10.80;99.90
26182;DHT22;13927;51.534;11.866;2023-12-29T09:52:43;10.90;99.90
26182;DHT22;13927;51.534;11.866;2023-12-29T09:55:10;10.90;99.90
26182;DHT22;13927;51.534;11.866;2023-12-29T09:57:38;10.90;99.90
26182;DHT22;13927;51.534;11.866;2023-12-29T10:00:10;11.00;99.90
26182;DHT22;13927;51.534;11.866;2023-12-29T10:02:38;11.00;99.90
26182;DHT22;13927;51.534;11.866;2023-12-29T10:05:04;11.10;99.90
26182;DHT22;13927;51.534;11.866;2023-12-29T10:07:41;11.10;99.90
26182;DHT22;13927;51.534;11.866;2023-12-29T10:10:14;11.10;99.90
26182;DHT22;13927;51.534;11.866;2023-12-29T10:12:47;11.10;99.90
26182;DHT22;13927;51.534;11.866;2023-12-29T10:15:19;11.10;99.90
26182;DHT22;13927;51.534;11.866;2023-12-29T10:18:07;11.10;99.90
26182;DHT22;13927;51.534;11.866;2023-12-29T10:20:56;11.10;99.90
26182;DHT22;13927;51.534;11.866;2023-12-29T10:23:47;11.20;99.90
26182;DHT22;13927;51.534;11.866;2023-12-29T10:26:19;11.10;99.90
26182;DHT22;13927;51.534;11.866;2023-12-29T10:28:47;11.10;99.90
26182;DHT22;13927;51.534;11.866;2023-12-29T10:31:16;11.20;99.90
26182;DHT22;13927;51.534;11.866;2023-12-29T10:33:42;11.20;99.90
26182;DHT22;13927;51.534;11.866;2023-12-29T10:36:09;11.30;99.90
26182;DHT22;13927;51.534;11.866;2023-12-29T10:38:39;11.40;99.90
26182;DHT22;13927;51.534;11.866;2023-12-29T10:41:14;11.40;99.90
26182;DHT22;13927;51.534;11.866;2023-12-29T10:43:42;11.30;99.90
26182;DHT22;13927;51.534;11.866;2023-12-29T10:46:10;11.20;99.90
26182;DHT22;13927;51.534;11.866;2023-12-29T10:48:39;11.10;99.90
26182;DHT22;13927;51.534;11.866;2023-12-29T10:51:05;11.00;99.90
26182;DHT22;13927;51.534;11.866;2023-12-29T10:53:32;10.90;99.90
26182;DHT22;13927;51.534;11.866;2023-12-29T10:55:58;10.90;99.90
26182;DHT22;13927;51.534;11.866;2023-12-29T10:58:28;10.90;99.90
26182;DHT22;13927;51.534;11.866;2023-12-29T11:00:58;11.00;99.90
26182;DHT22;13927;51.534;11.866;2023-12-29T11:03:28;10.90;99.90
26182;DHT22;13927;51.534;11.866;2023-12-29T11:05:59;10.90;99.90
26182;DHT22;13927;51.534;11.866;2023-12-29T11:08:25;10.90;99.90
26182;DHT22;13927;51.534;11.866;2023-12-29T11:10:51;10.90;99.90
26182;DHT22;13927;51.534;11.866;2023-12-29T11:13:20;10.90;99.90
26182;DHT22;13927;51.534;11.866;2023-12-29T11:15:46;10.90;99.90
26182;DHT22;13927;51.534;11.866;2023-12-29T11:18:14;11.00;99.90
26182;DHT22;13927;51.534;11.866;2023-12-29T11:20:45;10.90;99.90
26182;DHT22;13927;51.534;11.866;2023-12-29T11:23:12;11.00;99.90
26182;DHT22;13927;51.534;11.866;2023-12-29T11:25:43;11.00;99.90
26182;DHT22;13927;51.534;11.866;2023-12-29T11:28:11;11.00;99.90
26182;DHT22;13927;51.534;11.866;2023-12-29T11:30:39;11.10;99.90
26182;DHT22;13927;51.534;11.866;2023-12-29T11:33:13;11.10;99.90
26182;DHT22;13927;51.534;11.866;2023-12-29T11:35:50;11.10;99.90
26182;DHT22;13927;51.534;11.866;2023-12-29T11:44:46;11.20;99.90
26182;DHT22;13927;51.534;11.866;2023-12-29T11:47:36;11.30;99.90
26182;DHT22;13927;51.534;11.866;2023-12-29T11:50:03;11.30;99.90
26182;DHT22;13927;51.534;11.866;2023-12-29T11:52:36;11.30;99.90
26182;DHT22;13927;51.534;11.866;2023-12-29T11:55:12;11.40;99.90
26182;DHT22;13927;51.534;11.866;2023-12-29T11:57:40;11.40;99.90
26182;DHT22;13927;51.534;11.866;2023-12-29T12:00:07;11.40;99.90
26182;DHT22;13927;51.534;11.866;2023-12-29T12:02:33;11.40;99.90
26182;DHT22;13927;51.534;11.866;2023-12-29T12:04:59;11.40;99.90
26182;DHT22;13927;51.534;11.866;2023-12-29T12:09:50;11.40;99.90
26182;DHT22;13927;51.534;11.866;2023-12-29T12:12:40;11.30;99.90
26182;DHT22;13927;51.534;11.866;2023-12-29T12:18:15;11.30;99.90
26182;DHT22;13927;51.534;11.866;2023-12-29T12:24:22;11.30;99.90
26182;DHT22;13927;51.534;11.866;2023-12-29T12:26:47;11.30;99.90
26182;DHT22;13927;51.534;11.866;2023-12-29T12:29:15;11.30;99.90
26182;DHT22;13927;51.534;11.866;2023-12-29T12:32:02;11.30;99.90
26182;DHT22;13927;51.534;11.866;2023-12-29T12:34:37;11.30;99.90
26182;DHT22;13927;51.534;11.866;2023-12-29T12:37:03;11.40;99.90
26182;DHT22;13927;51.534;11.866;2023-12-29T12:39:42;11.30;99.90
26182;DHT22;13927;51.534;11.866;2023-12-29T12:42:09;11.30;99.90
26182;DHT22;13927;51.534;11.866;2023-12-29T12:44:39;11.30;99.90
26182;DHT22;13927;51.534;11.866;2023-12-29T12:47:08;11.30;99.90
26182;DHT22;13927;51.534;11.866;2023-12-29T12:49:35;11.40;99.90
26182;DHT22;13927;51.534;11.866;2023-12-29T12:52:01;11.30;99.90
26182;DHT22;13927;51.534;11.866;2023-12-29T12:54:28;11.30;99.90
26182;DHT22;13927;51.534;11.866;2023-12-29T12:56:55;11.20;99.90
26182;DHT22;13927;51.534;11.866;2023-12-29T12:59:21;11.20;99.90
26182;DHT22;13927;51.534;11.866;2023-12-29T13:01:47;11.10;99.90
26182;DHT22;13927;51.534;11.866;2023-12-29T13:04:13;11.10;99.90
26182;DHT22;13927;51.534;11.866;2023-12-29T13:06:43;11.00;99.90
26182;DHT22;13927;51.534;11.866;2023-12-29T13:09:12;11.10;99.90
26182;DHT22;13927;51.534;11.866;2023-12-29T13:11:39;11.00;99.90
26182;DHT22;13927;51.534;11.866;2023-12-29T13:14:06;11.00;99.90
26182;DHT22;13927;51.534;11.866;2023-12-29T13:16:34;11.00;99.90
26182;DHT22;13927;51.534;11.866;2023-12-29T13:21:54;11.00;99.90
26182;DHT22;13927;51.534;11.866;2023-12-29T13:24:24;11.00;99.90
26182;DHT22;13927;51.534;11.866;2023-12-29T13:26:54;11.00;99.90
26182;DHT22;13927;51.534;11.866;2023-12-29T13:29:22;11.00;99.90
26182;DHT22;13927;51.534;11.866;2023-12-29T13:32:04;11.00;99.90
26182;DHT22;13927;51.534;11.866;2023-12-29T13:35:09;11.00;99.90
26182;DHT22;13927;51.534;11.866;2023-12-29T13:38:22;11.00;99.90
26182;DHT22;13927;51.534;11.866;2023-12-29T13:40:56;10.90;99.90
26182;DHT22;13927;51.534;11.866;2023-12-29T13:43:43;10.80;99.90
26182;DHT22;13927;51.534;11.866;2023-12-29T13:46:31;10.80;99.90
26182;DHT22;13927;51.534;11.866;2023-12-29T13:48:57;10.90;99.90
26182;DHT22;13927;51.534;11.866;2023-12-29T13:51:24;11.00;99.90
26182;DHT22;13927;51.534;11.866;2023-12-29T13:54:10;11.00;99.90
26182;DHT22;13927;51.534;11.866;2023-12-29T13:56:37;11.00;99.90
26182;DHT22;13927;51.534;11.866;2023-12-29T13:59:07;10.90;99.90
26182;DHT22;13927;51.534;11.866;2023-12-29T14:01:36;10.90;99.90
26182;DHT22;13927;51.534;11.866;2023-12-29T14:04:03;10.90;99.90
26182;DHT22;13927;51.534;11.866;2023-12-29T14:06:51;10.90;99.90
26182;DHT22;13927;51.534;11.866;2023-12-29T14:09:26;11.00;99.90
26182;DHT22;13927;51.534;11.866;2023-12-29T14:11:52;11.00;99.90
26182;DHT22;13927;51.534;11.866;2023-12-29T14:14:25;10.90;99.90
26182;DHT22;13927;51.534;11.866;2023-12-29T14:16:52;10.90;99.90
26182;DHT22;13927;51.534;11.866;2023-12-29T14:19:18;10.90;99.90
26182;DHT22;13927;51.534;11.866;2023-12-29T14:21:46;10.80;99.90
26182;DHT22;13927;51.534;11.866;2023-12-29T14:24:18;10.80;99.90
26182;DHT22;13927;51.534;11.866;2023-12-29T14:29:25;10.80;99.90
26182;DHT22;13927;51.534;11.866;2023-12-29T14:31:57;10.80;99.90
26182;DHT22;13927;51.534;11.866;2023-12-29T14:34:28;10.80;99.90
26182;DHT22;13927;51.534;11.866;2023-12-29T14:36:53;10.80;99.90
26182;DHT22;13927;51.534;11.866;2023-12-29T14:39:19;10.80;99.90
26182;DHT22;13927;51.534;11.866;2023-12-29T14:41:45;10.80;99.90
26182;DHT22;13927;51.534;11.866;2023-12-29T14:44:11;10.90;99.90
26182;DHT22;13927;51.534;11.866;2023-12-29T14:46:37;10.90;99.90
26182;DHT22;13927;51.534;11.866;2023-12-29T14:49:03;10.90;99.90
26182;DHT22;13927;51.534;11.866;2023-12-29T14:51:32;10.90;99.90
26182;DHT22;13927;51.534;11.866;2023-12-29T14:53:58;10.90;99.90
26182;DHT22;13927;51.534;11.866;2023-12-29T14:56:23;11.00;99.90
26182;DHT22;13927;51.534;11.866;2023-12-29T14:58:49;11.00;99.90
26182;DHT22;13927;51.534;11.866;2023-12-29T15:01:15;11.00;99.90
26182;DHT22;13927;51.534;11.866;2023-12-29T15:03:42;11.00;99.90
26182;DHT22;13927;51.534;11.866;2023-12-29T15:06:07;11.00;99.90
26182;DHT22;13927;51.534;11.866;2023-12-29T15:08:33;10.90;99.90
26182;DHT22;13927;51.534;11.866;2023-12-29T15:11:06;10.90;99.90
26182;DHT22;13927;51.534;11.866;2023-12-29T15:13:32;10.90;99.90
26182;DHT22;13927;51.534;11.866;2023-12-29T15:16:03;10.80;99.90
26182;DHT22;13927;51.534;11.866;2023-12-29T15:18:32;10.80;99.90
26182;DHT22;13927;51.534;11.866;2023-12-29T15:21:00;10.80;99.90
26182;DHT22;13927;51.534;11.866;2023-12-29T15:23:27;10.80;99.90
26182;DHT22;13927;51.534;11.866;2023-12-29T15:25:53;10.80;99.90
26182;DHT22;13927;51.534;11.866;2023-12-29T15:28:19;10.70;99.90
26182;DHT22;13927;51.534;11.866;2023-12-29T15:30:46;10.70;99.90
26182;DHT22;13927;51.534;11.866;2023-12-29T15:33:12;10.70;99.90
26182;DHT22;13927;51.534;11.866;2023-12-29T15:35:39;10.60;99.90
26182;DHT22;13927;51.534;11.866;2023-12-29T15:38:06;10.60;99.90
26182;DHT22;13927;51.534;11.866;2023-12-29T15:40:32;10.60;99.90
26182;DHT22;13927;51.534;11.866;2023-12-29T15:42:58;10.60;99.90
26182;DHT22;13927;51.534;11.866;2023-12-29T15:45:23;10.70;99.90
26182;DHT22;13927;51.534;11.866;2023-12-29T15:47:49;10.80;99.90
26182;DHT22;13927;51.534;11.866;2023-12-29T15:50:15;10.90;99.90
26182;DHT22;13927;51.534;11.866;2023-12-29T15:52:41;10.90;99.90
26182;DHT22;13927;51.534;11.866;2023-12-29T15:55:07;11.00;99.90
26182;DHT22;13927;51.534;11.866;2023-12-29T15:57:33;11.00;99.90
26182;DHT22;13927;51.534;11.866;2023-12-29T15:59:59;11.00;99.90
26182;DHT22;13927;51.534;11.866;2023-12-29T16:02:27;11.00;99.90
26182;DHT22;13927;51.534;11.866;2023-12-29T16:04:53;11.00;99.90